sensor_id;sensor_type;location;lat;lon;timestamp;pressure;altitude;pressure_sealevel;temperature;humidity
21545;BME280;10933;50.754;11.508;2023-10-08T12:50:42;100659.06;;;14.96;100.00
21545;BME280;10933;50.754;11.508;2023-10-08T12:53:09;100645.47;;;15.18;100.00
21545;BME280;10933;50.754;11.508;2023-10-08T12:55:38;100654.59;;;14.46;100.00
21545;BME280;10933;50.754;11.508;2023-10-08T12:58:07;100621.88;;;14.75;100.00
21545;BME280;10933;50.754;11.508;2023-10-08T13:00:37;100599.22;;;15.13;100.00
21545;BME280;10933;50.754;11.508;2023-10-08T13:03:15;100606.56;;;15.12;100.00
21545;BME280;10933;50.754;11.508;2023-10-08T13:05:44;100612.31;;;14.94;100.00
21545;BME280;10933;50.754;11.508;2023-10-08T13:08:13;100618.81;;;14.71;100.00
21545;BME280;10933;50.754;11.508;2023-10-08T13:10:39;100623.75;;;14.52;100.00
21545;BME280;10933;50.754;11.508;2023-10-08T13:13:10;100630.44;;;13.94;100.00
21545;BME280;10933;50.754;11.508;2023-10-08T13:15:37;100607.13;;;14.32;100.00
21545;BME280;10933;50.754;11.508;2023-10-08T13:18:03;100591.16;;;14.35;100.00
21545;BME280;10933;50.754;11.508;2023-10-08T13:20:29;100592.69;;;14.65;100.00
21545;BME280;10933;50.754;11.508;2023-10-08T13:23:03;100595.56;;;14.58;100.00
21545;BME280;10933;50.754;11.508;2023-10-08T13:25:30;100613.50;;;14.59;100.00
21545;BME280;10933;50.754;11.508;2023-10-08T13:27:59;100615.63;;;14.74;100.00
21545;BME280;10933;50.754;11.508;2023-10-08T13:30:26;100616.03;;;14.27;100.00
21545;BME280;10933;50.754;11.508;2023-10-08T13:32:52;100577.63;;;14.57;100.00
21545;BME280;10933;50.754;11.508;2023-10-08T13:35:19;100578.84;;;14.28;100.00
21545;BME280;10933;50.754;11.508;2023-10-08T13:37:45;100566.97;;;14.72;100.00
21545;BME280;10933;50.754;11.508;2023-10-08T13:40:14;100572.47;;;15.26;100.00
21545;BME280;10933;50.754;11.508;2023-10-08T13:42:44;100580.59;;;15.53;100.00
21545;BME280;10933;50.754;11.508;2023-10-08T13:45:10;100599.97;;;15.08;100.00
21545;BME280;10933;50.754;11.508;2023-10-08T13:47:42;100585.34;;;14.65;100.00
21545;BME280;10933;50.754;11.508;2023-10-08T13:50:08;100577.63;;;14.57;100.00
21545;BME280;10933;50.754;11.508;2023-10-08T13:52:36;100571.44;;;14.84;100.00
21545;BME280;10933;50.754;11.508;2023-10-08T13:55:07;100577.00;;;14.94;100.00
21545;BME280;10933;50.754;11.508;2023-10-08T13:57:42;100590.25;;;15.12;100.00
21545;BME280;10933;50.754;11.508;2023-10-08T14:00:09;100595.25;;;14.98;100.00
21545;BME280;10933;50.754;11.508;2023-10-08T14:02:42;100608.25;;;14.96;100.00
21545;BME280;10933;50.754;11.508;2023-10-08T14:05:10;100594.00;;;14.84;100.00
21545;BME280;10933;50.754;11.508;2023-10-08T14:07:41;100589.38;;;14.85;100.00
21545;BME280;10933;50.754;11.508;2023-10-08T14:10:10;100589.72;;;14.66;100.00
21545;BME280;10933;50.754;11.508;2023-10-08T14:12:45;100577.03;;;14.50;100.00
21545;BME280;10933;50.754;11.508;2023-10-08T14:15:16;100578.84;;;14.28;100.00
21545;BME280;10933;50.754;11.508;2023-10-08T14:17:44;100557.97;;;14.28;100.00
21545;BME280;10933;50.754;11.508;2023-10-08T14:20:14;100555.34;;;14.17;100.00
21545;BME280;10933;50.754;11.508;2023-10-08T14:22:47;100548.78;;;14.12;100.00
21545;BME280;10933;50.754;11.508;2023-10-08T14:25:17;100536.28;;;14.11;100.00
21545;BME280;10933;50.754;11.508;2023-10-08T14:27:50;100512.81;;;14.00;100.00
21545;BME280;10933;50.754;11.508;2023-10-08T14:30:20;100505.09;;;13.92;100.00
21545;BME280;10933;50.754;11.508;2023-10-08T14:32:50;100497.50;;;13.94;100.00
21545;BME280;10933;50.754;11.508;2023-10-08T14:35:16;100486.41;;;13.96;100.00
21545;BME280;10933;50.754;11.508;2023-10-08T14:38:01;100490.47;;;14.15;100.00
21545;BME280;10933;50.754;11.508;2023-10-08T14:40:46;100515.00;;;14.03;100.00
21545;BME280;10933;50.754;11.508;2023-10-08T14:43:30;100520.38;;;13.81;100.00
21545;BME280;10933;50.754;11.508;2023-10-08T14:46:03;100509.22;;;13.78;100.00
21545;BME280;10933;50.754;11.508;2023-10-08T14:48:32;100511.69;;;13.79;100.00
21545;BME280;10933;50.754;11.508;2023-10-08T14:51:01;100508.81;;;13.86;100.00
21545;BME280;10933;50.754;11.508;2023-10-08T14:53:33;100507.22;;;13.90;100.00
21545;BME280;10933;50.754;11.508;2023-10-08T14:56:00;100504.69;;;13.83;100.00
21545;BME280;10933;50.754;11.508;2023-10-08T14:58:30;100505.44;;;13.79;100.00
21545;BME280;10933;50.754;11.508;2023-10-08T15:00:57;100483.75;;;13.79;100.00
21545;BME280;10933;50.754;11.508;2023-10-08T15:03:22;100471.25;;;13.78;100.00
21545;BME280;10933;50.754;11.508;2023-10-08T15:05:49;100464.53;;;13.64;100.00
21545;BME280;10933;50.754;11.508;2023-10-08T15:08:15;100462.09;;;13.45;100.00
21545;BME280;10933;50.754;11.508;2023-10-08T15:10:44;100448.97;;;13.37;100.00
21545;BME280;10933;50.754;11.508;2023-10-08T15:13:12;100452.75;;;13.36;100.00
21545;BME280;10933;50.754;11.508;2023-10-08T15:15:38;100429.66;;;13.50;100.00
21545;BME280;10933;50.754;11.508;2023-10-08T15:18:06;100422.66;;;13.54;100.00
21545;BME280;10933;50.754;11.508;2023-10-08T15:20:32;100421.53;;;13.50;100.00
21545;BME280;10933;50.754;11.508;2023-10-08T15:23:00;100409.03;;;13.49;100.00
21545;BME280;10933;50.754;11.508;2023-10-08T15:25:26;100398.34;;;13.60;100.00
21545;BME280;10933;50.754;11.508;2023-10-08T15:27:52;100391.53;;;13.79;100.00
21545;BME280;10933;50.754;11.508;2023-10-08T15:30:19;100396.41;;;13.77;100.00
21545;BME280;10933;50.754;11.508;2023-10-08T15:32:47;100420.91;;;13.65;100.00
21545;BME280;10933;50.754;11.508;2023-10-08T15:35:19;100426.75;;;13.57;100.00
21545;BME280;10933;50.754;11.508;2023-10-08T15:37:47;100428.25;;;13.48;100.00
21545;BME280;10933;50.754;11.508;2023-10-08T15:40:13;100429.91;;;13.32;100.00
21545;BME280;10933;50.754;11.508;2023-10-08T15:42:55;100435.16;;;13.39;100.00
21545;BME280;10933;50.754;11.508;2023-10-08T15:45:24;100432.34;;;13.34;100.00
21545;BME280;10933;50.754;11.508;2023-10-08T15:47:51;100427.78;;;13.34;100.00
21545;BME280;10933;50.754;11.508;2023-10-08T15:50:21;100432.53;;;13.27;100.00
21545;BME280;10933;50.754;11.508;2023-10-08T15:52:50;100435.19;;;13.22;100.00
21545;BME280;10933;50.754;11.508;2023-10-08T15:55:17;100427.13;;;13.27;100.00
21545;BME280;10933;50.754;11.508;2023-10-08T15:57:44;100421.53;;;13.34;100.00
21545;BME280;10933;50.754;11.508;2023-10-08T16:00:10;100415.53;;;13.48;100.00
21545;BME280;10933;50.754;11.508;2023-10-08T16:02:36;100411.66;;;13.61;100.00
21545;BME280;10933;50.754;11.508;2023-10-08T16:05:02;100407.53;;;13.59;100.00
21545;BME280;10933;50.754;11.508;2023-10-08T16:07:29;100405.06;;;13.57;100.00
21545;BME280;10933;50.754;11.508;2023-10-08T16:09:55;100411.44;;;13.68;100.00
21545;BME280;10933;50.754;11.508;2023-10-08T16:12:21;100415.81;;;13.69;100.00
21545;BME280;10933;50.754;11.508;2023-10-08T16:14:47;100421.78;;;13.71;100.00
21545;BME280;10933;50.754;11.508;2023-10-08T16:17:13;100419.84;;;13.66;100.00
21545;BME280;10933;50.754;11.508;2023-10-08T16:19:42;100429.22;;;13.59;100.00
21545;BME280;10933;50.754;11.508;2023-10-08T16:22:08;100441.63;;;13.54;100.00
21545;BME280;10933;50.754;11.508;2023-10-08T16:24:35;100436.16;;;13.49;100.00
21545;BME280;10933;50.754;11.508;2023-10-08T16:27:05;100439.81;;;13.43;100.00
21545;BME280;10933;50.754;11.508;2023-10-08T16:29:32;100436.97;;;13.33;100.00
21545;BME280;10933;50.754;11.508;2023-10-08T16:32:04;100426.06;;;13.28;100.00
21545;BME280;10933;50.754;11.508;2023-10-08T16:34:32;100419.63;;;13.17;100.00
21545;BME280;10933;50.754;11.508;2023-10-08T16:37:00;100405.59;;;13.04;100.00
21545;BME280;10933;50.754;11.508;2023-10-08T16:39:27;100411.31;;;12.90;100.00
21545;BME280;10933;50.754;11.508;2023-10-08T16:41:53;100406.22;;;12.77;100.00
21545;BME280;10933;50.754;11.508;2023-10-08T16:44:20;100370.69;;;12.28;100.00
21545;BME280;10933;50.754;11.508;2023-10-08T16:46:48;100333.59;;;12.41;100.00
21545;BME280;10933;50.754;11.508;2023-10-08T16:49:15;100316.69;;;12.33;100.00
21545;BME280;10933;50.754;11.508;2023-10-08T16:51:40;100312.16;;;12.22;100.00
21545;BME280;10933;50.754;11.508;2023-10-08T16:54:07;100280.41;;;12.18;100.00
21545;BME280;10933;50.754;11.508;2023-10-08T16:56:41;100257.13;;;12.00;100.00
21545;BME280;10933;50.754;11.508;2023-10-08T16:59:08;100211.16;;;11.71;100.00
21545;BME280;10933;50.754;11.508;2023-10-08T17:01:36;100161.50;;;11.44;100.00
21545;BME280;10933;50.754;11.508;2023-10-08T17:04:04;100112.41;;;11.35;100.00
21545;BME280;10933;50.754;11.508;2023-10-08T17:06:31;100083.97;;;11.61;100.00
21545;BME280;10933;50.754;11.508;2023-10-08T17:08:57;100064.66;;;11.69;100.00
21545;BME280;10933;50.754;11.508;2023-10-08T17:11:23;100024.75;;;11.76;100.00
21545;BME280;10933;50.754;11.508;2023-10-08T17:13:50;100001.50;;;11.75;100.00
21545;BME280;10933;50.754;11.508;2023-10-08T17:16:16;99981.44;;;11.71;100.00
21545;BME280;10933;50.754;11.508;2023-10-08T17:18:42;99961.38;;;11.67;100.00
21545;BME280;10933;50.754;11.508;2023-10-08T17:21:09;99935.41;;;11.66;100.00
21545;BME280;10933;50.754;11.508;2023-10-08T17:23:35;99899.16;;;11.62;100.00
21545;BME280;10933;50.754;11.508;2023-10-08T17:26:01;99883.81;;;11.29;100.00
21545;BME280;10933;50.754;11.508;2023-10-08T17:28:27;99841.38;;;11.08;100.00
21545;BME280;10933;50.754;11.508;2023-10-08T17:30:53;99790.19;;;10.96;100.00
21545;BME280;10933;50.754;11.508;2023-10-08T17:33:19;99749.88;;;10.89;100.00
21545;BME280;10933;50.754;11.508;2023-10-08T17:35:45;99724.84;;;11.16;100.00
21545;BME280;10933;50.754;11.508;2023-10-08T17:38:11;99700.38;;;11.23;100.00
21545;BME280;10933;50.754;11.508;2023-10-08T17:40:38;99696.34;;;11.25;100.00
21545;BME280;10933;50.754;11.508;2023-10-08T17:43:08;99689.75;;;11.38;100.00
21545;BME280;10933;50.754;11.508;2023-10-08T17:45:35;99674.66;;;11.42;100.00
21545;BME280;10933;50.754;11.508;2023-10-08T17:48:02;99657.97;;;11.45;100.00
21545;BME280;10933;50.754;11.508;2023-10-08T17:50:32;99654.25;;;11.51;100.00
21545;BME280;10933;50.754;11.508;2023-10-08T17:52:59;99653.47;;;11.56;100.00
21545;BME280;10933;50.754;11.508;2023-10-08T17:55:27;99667.16;;;11.44;100.00
21545;BME280;10933;50.754;11.508;2023-10-08T17:57:53;99651.41;;;11.41;100.00
21545;BME280;10933;50.754;11.508;2023-10-08T18:00:19;99644.91;;;11.37;100.00
21545;BME280;10933;50.754;11.508;2023-10-08T18:02:47;99644.88;;;11.32;100.00
21545;BME280;10933;50.754;11.508;2023-10-08T18:05:19;99646.75;;;11.31;100.00
21545;BME280;10933;50.754;11.508;2023-10-08T18:07:48;99642.97;;;11.32;100.00
21545;BME280;10933;50.754;11.508;2023-10-08T18:10:18;99652.75;;;11.38;100.00
21545;BME280;10933;50.754;11.508;2023-10-08T18:12:46;99640.56;;;11.36;100.00
21545;BME280;10933;50.754;11.508;2023-10-08T18:15:17;99630.97;;;11.45;100.00
21545;BME280;10933;50.754;11.508;2023-10-08T18:17:48;99630.44;;;11.48;100.00
21545;BME280;10933;50.754;11.508;2023-10-08T18:20:16;99635.84;;;11.48;100.00
21545;BME280;10933;50.754;11.508;2023-10-08T18:22:49;99638.09;;;11.56;100.00
21545;BME280;10933;50.754;11.508;2023-10-08T18:25:20;99623.25;;;11.59;100.00
21545;BME280;10933;50.754;11.508;2023-10-08T18:27:47;99637.25;;;11.56;100.00
21545;BME280;10933;50.754;11.508;2023-10-08T18:30:14;99664.09;;;11.62;100.00
21545;BME280;10933;50.754;11.508;2023-10-08T18:32:40;99656.53;;;11.64;100.00
21545;BME280;10933;50.754;11.508;2023-10-08T18:35:06;99655.31;;;11.50;100.00
21545;BME280;10933;50.754;11.508;2023-10-08T18:37:33;99646.66;;;11.48;100.00
21545;BME280;10933;50.754;11.508;2023-10-08T18:40:00;99614.78;;;11.23;100.00
21545;BME280;10933;50.754;11.508;2023-10-08T18:42:26;99585.22;;;11.11;100.00
21545;BME280;10933;50.754;11.508;2023-10-08T18:44:56;99580.38;;;11.13;100.00
21545;BME280;10933;50.754;11.508;2023-10-08T18:47:24;99559.19;;;11.27;100.00
21545;BME280;10933;50.754;11.508;2023-10-08T18:49:53;99559.34;;;11.42;100.00
21545;BME280;10933;50.754;11.508;2023-10-08T18:52:20;99552.66;;;11.50;100.00
21545;BME280;10933;50.754;11.508;2023-10-08T18:54:47;99557.50;;;11.48;100.00
21545;BME280;10933;50.754;11.508;2023-10-08T18:57:16;99556.97;;;11.46;100.00
21545;BME280;10933;50.754;11.508;2023-10-08T18:59:43;99555.38;;;11.50;100.00
21545;BME280;10933;50.754;11.508;2023-10-08T19:02:09;99550.50;;;11.52;100.00
21545;BME280;10933;50.754;11.508;2023-10-08T19:04:35;99537.50;;;11.44;100.00
21545;BME280;10933;50.754;11.508;2023-10-08T19:07:01;99541.25;;;11.43;100.00
21545;BME280;10933;50.754;11.508;2023-10-08T19:09:30;99539.97;;;11.50;100.00
21545;BME280;10933;50.754;11.508;2023-10-08T19:11:56;99507.84;;;11.54;100.00
21545;BME280;10933;50.754;11.508;2023-10-08T19:14:22;99512.03;;;11.35;100.00
21545;BME280;10933;50.754;11.508;2023-10-08T19:16:48;99505.09;;;11.44;100.00
21545;BME280;10933;50.754;11.508;2023-10-08T19:19:16;99492.63;;;11.43;100.00
21545;BME280;10933;50.754;11.508;2023-10-08T19:21:42;99497.72;;;11.39;100.00
21545;BME280;10933;50.754;11.508;2023-10-08T19:24:08;99477.56;;;11.47;100.00
21545;BME280;10933;50.754;11.508;2023-10-08T19:26:34;99467.63;;;11.58;100.00
21545;BME280;10933;50.754;11.508;2023-10-08T19:29:01;99457.38;;;11.60;100.00
21545;BME280;10933;50.754;11.508;2023-10-08T19:31:27;99454.97;;;11.63;100.00
21545;BME280;10933;50.754;11.508;2023-10-08T19:33:53;99443.13;;;11.69;100.00
21545;BME280;10933;50.754;11.508;2023-10-08T19:36:20;99426.38;;;11.72;100.00
21545;BME280;10933;50.754;11.508;2023-10-08T19:38:46;99432.06;;;11.76;100.00
21545;BME280;10933;50.754;11.508;2023-10-08T19:41:17;99419.91;;;11.73;100.00
21545;BME280;10933;50.754;11.508;2023-10-08T19:43:43;99430.97;;;11.72;100.00
21545;BME280;10933;50.754;11.508;2023-10-08T19:46:16;99431.75;;;11.67;100.00
21545;BME280;10933;50.754;11.508;2023-10-08T19:48:49;99444.69;;;11.60;100.00
21545;BME280;10933;50.754;11.508;2023-10-08T19:51:16;99449.47;;;11.53;100.00
21545;BME280;10933;50.754;11.508;2023-10-08T19:53:43;99458.13;;;11.50;100.00
21545;BME280;10933;50.754;11.508;2023-10-08T19:56:10;99465.63;;;11.43;100.00
21545;BME280;10933;50.754;11.508;2023-10-08T19:58:37;99473.41;;;11.34;100.00
21545;BME280;10933;50.754;11.508;2023-10-08T20:01:03;99471.44;;;11.30;100.00
21545;BME280;10933;50.754;11.508;2023-10-08T20:03:30;99473.59;;;11.28;100.00
21545;BME280;10933;50.754;11.508;2023-10-08T20:05:56;99466.56;;;11.27;100.00
21545;BME280;10933;50.754;11.508;2023-10-08T20:08:23;99447.13;;;11.25;100.00
21545;BME280;10933;50.754;11.508;2023-10-08T20:10:49;99452.13;;;11.11;100.00
21545;BME280;10933;50.754;11.508;2023-10-08T20:13:16;99451.50;;;11.04;100.00
21545;BME280;10933;50.754;11.508;2023-10-08T20:15:43;99444.19;;;10.99;100.00
21545;BME280;10933;50.754;11.508;2023-10-08T20:18:13;99437.97;;;10.99;100.00
21545;BME280;10933;50.754;11.508;2023-10-08T20:20:39;99432.31;;;11.00;100.00
21545;BME280;10933;50.754;11.508;2023-10-08T20:23:06;99414.78;;;11.03;100.00
21545;BME280;10933;50.754;11.508;2023-10-08T20:25:37;99399.41;;;11.03;100.00
21545;BME280;10933;50.754;11.508;2023-10-08T20:28:13;99404.78;;;10.98;100.00
21545;BME280;10933;50.754;11.508;2023-10-08T20:30:42;99392.88;;;10.94;100.00
21545;BME280;10933;50.754;11.508;2023-10-08T20:33:10;99406.44;;;11.04;100.00
21545;BME280;10933;50.754;11.508;2023-10-08T20:35:37;99387.94;;;11.18;100.00
21545;BME280;10933;50.754;11.508;2023-10-08T20:38:03;99372.13;;;11.32;100.00
21545;BME280;10933;50.754;11.508;2023-10-08T20:40:32;99370.50;;;11.36;100.00
21545;BME280;10933;50.754;11.508;2023-10-08T20:42:58;99359.22;;;11.44;100.00
21545;BME280;10933;50.754;11.508;2023-10-08T20:45:25;99385.72;;;11.47;100.00
21545;BME280;10933;50.754;11.508;2023-10-08T20:47:56;99383.56;;;11.54;100.00
21545;BME280;10933;50.754;11.508;2023-10-08T20:50:25;99367.09;;;11.56;100.00
21545;BME280;10933;50.754;11.508;2023-10-08T20:52:52;99360.38;;;11.58;100.00
21545;BME280;10933;50.754;11.508;2023-10-08T20:55:19;99362.81;;;11.60;100.00
21545;BME280;10933;50.754;11.508;2023-10-08T20:57:51;99366.28;;;11.55;100.00
21545;BME280;10933;50.754;11.508;2023-10-08T21:00:18;99361.63;;;11.40;100.00
21545;BME280;10933;50.754;11.508;2023-10-08T21:02:53;99354.97;;;11.58;100.00
21545;BME280;10933;50.754;11.508;2023-10-08T21:05:20;99363.66;;;11.65;100.00
21545;BME280;10933;50.754;11.508;2023-10-08T21:07:47;99367.47;;;11.69;100.00
21545;BME280;10933;50.754;11.508;2023-10-08T21:10:18;99371.22;;;11.68;100.00
21545;BME280;10933;50.754;11.508;2023-10-08T21:12:47;99363.97;;;11.69;100.00
21545;BME280;10933;50.754;11.508;2023-10-08T21:15:15;99371.22;;;11.68;100.00
21545;BME280;10933;50.754;11.508;2023-10-08T21:17:44;99370.66;;;11.61;100.00
21545;BME280;10933;50.754;11.508;2023-10-08T21:20:17;99355.78;;;11.59;100.00
21545;BME280;10933;50.754;11.508;2023-10-08T21:22:47;99349.03;;;11.56;100.00
21545;BME280;10933;50.754;11.508;2023-10-08T21:25:17;99346.91;;;11.63;100.00
21545;BME280;10933;50.754;11.508;2023-10-08T21:27:46;99343.97;;;11.70;100.00
21545;BME280;10933;50.754;11.508;2023-10-08T21:30:14;99337.22;;;11.72;100.00
21545;BME280;10933;50.754;11.508;2023-10-08T21:32:49;99332.41;;;11.79;100.00
21545;BME280;10933;50.754;11.508;2023-10-08T21:35:19;99326.50;;;11.83;100.00
21545;BME280;10933;50.754;11.508;2023-10-08T21:37:47;99314.78;;;11.72;100.00
21545;BME280;10933;50.754;11.508;2023-10-08T21:40:15;99313.72;;;11.73;100.00
21545;BME280;10933;50.754;11.508;2023-10-08T21:42:48;99325.31;;;11.73;100.00
21545;BME280;10933;50.754;11.508;2023-10-08T21:45:15;99315.59;;;11.72;100.00
21545;BME280;10933;50.754;11.508;2023-10-08T21:47:46;99328.47;;;11.55;100.00
21545;BME280;10933;50.754;11.508;2023-10-08T21:50:14;99337.22;;;11.25;100.00
21545;BME280;10933;50.754;11.508;2023-10-08T21:52:44;99337.50;;;11.24;100.00
21545;BME280;10933;50.754;11.508;2023-10-08T21:55:12;99320.22;;;11.30;100.00
21545;BME280;10933;50.754;11.508;2023-10-08T21:57:39;99303.78;;;11.31;100.00
21545;BME280;10933;50.754;11.508;2023-10-08T22:00:08;99290.56;;;11.35;100.00
21545;BME280;10933;50.754;11.508;2023-10-08T22:02:50;99274.91;;;11.32;100.00
21545;BME280;10933;50.754;11.508;2023-10-08T22:05:17;99268.91;;;11.25;100.00
21545;BME280;10933;50.754;11.508;2023-10-08T22:07:45;99257.22;;;11.14;100.00
21545;BME280;10933;50.754;11.508;2023-10-08T22:10:11;99252.72;;;11.30;100.00
21545;BME280;10933;50.754;11.508;2023-10-08T22:12:41;99242.78;;;11.40;100.00
21545;BME280;10933;50.754;11.508;2023-10-08T22:15:12;99232.84;;;11.51;100.00
21545;BME280;10933;50.754;11.508;2023-10-08T22:17:52;99227.19;;;11.58;100.00
21545;BME280;10933;50.754;11.508;2023-10-08T22:20:18;99225.78;;;11.40;100.00
21545;BME280;10933;50.754;11.508;2023-10-08T22:23:03;99229.53;;;11.34;100.00
21545;BME280;10933;50.754;11.508;2023-10-08T22:25:32;99219.34;;;11.51;100.00
21545;BME280;10933;50.754;11.508;2023-10-08T22:28:05;99209.66;;;11.65;100.00
21545;BME280;10933;50.754;11.508;2023-10-08T22:30:41;99199.91;;;11.59;100.00
21545;BME280;10933;50.754;11.508;2023-10-08T22:33:07;99198.59;;;11.72;100.00
21545;BME280;10933;50.754;11.508;2023-10-08T22:35:36;99201.31;;;11.72;100.00
21545;BME280;10933;50.754;11.508;2023-10-08T22:38:11;99200.53;;;11.87;100.00
21545;BME280;10933;50.754;11.508;2023-10-08T22:40:44;99197.31;;;11.85;100.00
21545;BME280;10933;50.754;11.508;2023-10-08T22:43:26;99218.94;;;11.95;100.00
21545;BME280;10933;50.754;11.508;2023-10-08T22:45:57;99221.13;;;11.98;100.00
21545;BME280;10933;50.754;11.508;2023-10-08T22:48:28;99225.97;;;12.06;100.00
21545;BME280;10933;50.754;11.508;2023-10-08T22:51:13;99231.94;;;12.08;100.00
21545;BME280;10933;50.754;11.508;2023-10-08T22:54:05;99247.09;;;12.14;100.00
21545;BME280;10933;50.754;11.508;2023-10-08T22:56:33;99257.63;;;12.16;100.00
21545;BME280;10933;50.754;11.508;2023-10-08T22:59:01;99271.16;;;12.21;100.00
21545;BME280;10933;50.754;11.508;2023-10-08T23:01:33;99294.16;;;12.23;100.00
21545;BME280;10933;50.754;11.508;2023-10-08T23:03:59;99306.06;;;12.22;100.00
21545;BME280;10933;50.754;11.508;2023-10-08T23:06:27;99314.44;;;12.21;100.00
21545;BME280;10933;50.754;11.508;2023-10-08T23:08:55;99311.47;;;12.22;100.00
21545;BME280;10933;50.754;11.508;2023-10-08T23:11:25;99320.94;;;12.25;100.00
21545;BME280;10933;50.754;11.508;2023-10-08T23:13:51;99320.66;;;12.21;100.00
21545;BME280;10933;50.754;11.508;2023-10-08T23:16:17;99315.72;;;11.98;100.00
21545;BME280;10933;50.754;11.508;2023-10-08T23:18:47;99311.09;;;11.88;100.00
21545;BME280;10933;50.754;11.508;2023-10-08T23:21:16;99298.69;;;11.97;100.00
21545;BME280;10933;50.754;11.508;2023-10-08T23:23:44;99290.06;;;12.11;100.00
21545;BME280;10933;50.754;11.508;2023-10-08T23:26:13;99280.34;;;12.15;100.00
21545;BME280;10933;50.754;11.508;2023-10-08T23:28:42;99267.09;;;12.08;100.00
21545;BME280;10933;50.754;11.508;2023-10-08T23:31:09;99268.16;;;11.97;100.00
21545;BME280;10933;50.754;11.508;2023-10-08T23:33:37;99244.63;;;12.02;100.00
21545;BME280;10933;50.754;11.508;2023-10-08T23:36:10;99231.38;;;11.96;100.00
21545;BME280;10933;50.754;11.508;2023-10-08T23:38:42;99223.28;;;12.01;100.00
21545;BME280;10933;50.754;11.508;2023-10-08T23:41:09;99212.47;;;12.11;100.00
21545;BME280;10933;50.754;11.508;2023-10-08T23:43:49;99207.88;;;12.12;100.00
21545;BME280;10933;50.754;11.508;2023-10-08T23:46:26;99208.13;;;12.05;100.00
21545;BME280;10933;50.754;11.508;2023-10-08T23:49:03;99204.63;;;12.15;100.00
21545;BME280;10933;50.754;11.508;2023-10-08T23:51:47;99207.06;;;11.96;100.00
21545;BME280;10933;50.754;11.508;2023-10-08T23:54:17;99216.22;;;11.90;100.00
21545;BME280;10933;50.754;11.508;2023-10-08T23:57:11;99191.34;;;11.88;100.00
21545;BME280;10933;50.754;11.508;2023-10-08T23:59:44;99189.16;;;11.79;100.00
